createdAt,value
2019-03-23T00:02:06.854Z,17.83
2019-03-23T00:04:36.442Z,18.90
2019-03-23T00:07:06.571Z,20.60
2019-03-23T00:09:36.225Z,18.43
2019-03-23T00:12:05.793Z,19.30
2019-03-23T00:14:35.318Z,18.30
2019-03-23T00:17:05.031Z,18.77
2019-03-23T00:19:34.573Z,19.37
2019-03-23T00:22:04.050Z,21.17
2019-03-23T00:24:33.563Z,17.63
2019-03-23T00:27:02.472Z,17.53
2019-03-23T00:29:31.998Z,18.57
2019-03-23T00:32:01.686Z,18.70
2019-03-23T00:34:31.107Z,20.77
2019-03-23T00:37:00.251Z,19.43
2019-03-23T00:39:29.789Z,20.17
2019-03-23T00:41:59.285Z,21.17
2019-03-23T00:44:28.126Z,21.00
2019-03-23T00:46:57.689Z,21.90
2019-03-23T00:49:27.242Z,19.50
2019-03-23T00:51:56.762Z,21.30
2019-03-23T00:54:26.343Z,19.57
2019-03-23T00:56:55.847Z,20.93
2019-03-23T00:59:25.561Z,20.17
2019-03-23T01:01:55.125Z,19.43
2019-03-23T01:04:24.754Z,20.80
2019-03-23T01:06:54.268Z,19.80
2019-03-23T01:09:23.710Z,19.43
2019-03-23T01:11:53.328Z,19.23
2019-03-23T01:14:22.820Z,20.00
2019-03-23T01:16:52.234Z,20.03
2019-03-23T01:19:21.797Z,18.90
2019-03-23T01:21:51.533Z,20.73
2019-03-23T01:24:20.521Z,19.20
2019-03-23T01:35:48.372Z,19.30
2019-03-23T01:38:36.076Z,19.40
2019-03-23T01:44:17.664Z,19.10
2019-03-23T01:49:40.112Z,20.30
2019-03-23T01:52:09.549Z,19.50
2019-03-23T01:54:39.158Z,19.40
2019-03-23T01:57:08.018Z,20.53
2019-03-23T01:59:37.422Z,19.30
2019-03-23T02:02:07.054Z,19.10
2019-03-23T02:04:36.513Z,20.97
2019-03-23T02:07:13.798Z,18.97
2019-03-23T02:09:37.304Z,20.57
2019-03-23T02:12:06.133Z,21.00
2019-03-23T02:14:35.685Z,19.20
2019-03-23T02:17:04.517Z,22.80
2019-03-23T02:19:34.035Z,20.30
2019-03-23T02:22:02.873Z,19.60
2019-03-23T02:24:32.297Z,20.30
2019-03-23T02:27:01.769Z,18.60
2019-03-23T02:29:30.532Z,19.40
2019-03-23T02:31:59.996Z,20.20
2019-03-23T02:34:29.516Z,22.23
2019-03-23T02:36:58.928Z,20.67
2019-03-23T02:39:28.403Z,19.37
2019-03-23T02:41:57.835Z,19.20
2019-03-23T02:44:27.379Z,19.87
2019-03-23T02:46:56.938Z,19.43
2019-03-23T02:49:25.649Z,19.53
2019-03-23T02:51:55.133Z,18.40
2019-03-23T02:54:24.675Z,19.30
2019-03-23T02:56:54.293Z,18.47
2019-03-23T02:59:23.772Z,19.90
2019-03-23T03:01:53.334Z,19.27
2019-03-23T03:04:22.813Z,20.17
2019-03-23T03:06:51.642Z,19.30
2019-03-23T03:09:20.532Z,19.17
2019-03-23T03:11:49.973Z,20.70
2019-03-23T03:14:19.361Z,19.43
2019-03-23T03:16:48.892Z,20.40
2019-03-23T03:19:18.495Z,20.43
2019-03-23T03:21:47.941Z,19.60
2019-03-23T03:24:17.493Z,20.00
2019-03-23T03:26:46.970Z,20.77
2019-03-23T03:29:16.498Z,20.70
2019-03-23T03:31:45.909Z,22.03
2019-03-23T03:34:15.467Z,20.77
2019-03-23T03:36:44.959Z,19.87
2019-03-23T03:39:14.464Z,20.47
2019-03-23T03:41:43.885Z,20.93
2019-03-23T03:44:13.306Z,21.60
2019-03-23T03:46:42.879Z,20.90
2019-03-23T03:49:13.123Z,22.13
2019-03-23T03:51:42.857Z,22.30
2019-03-23T03:54:11.735Z,21.20
2019-03-23T03:56:40.393Z,20.77
2019-03-23T03:59:09.846Z,22.03
2019-03-23T04:01:39.336Z,21.50
2019-03-23T04:04:08.781Z,22.03
2019-03-23T04:06:38.292Z,19.90
2019-03-23T04:09:08.291Z,20.90
2019-03-23T04:11:37.864Z,21.93
2019-03-23T04:14:07.350Z,21.13
2019-03-23T04:16:36.687Z,19.97
2019-03-23T04:19:06.222Z,21.80
2019-03-23T04:21:35.641Z,20.40
2019-03-23T04:24:05.245Z,19.63
2019-03-23T04:26:34.657Z,20.97
2019-03-23T04:29:04.237Z,20.07
2019-03-23T04:31:33.669Z,19.90
2019-03-23T04:34:03.240Z,20.63
2019-03-23T04:36:32.033Z,20.43
2019-03-23T04:39:01.445Z,20.63
2019-03-23T04:41:31.024Z,19.70
2019-03-23T04:44:01.009Z,21.67
2019-03-23T04:46:30.625Z,22.47
2019-03-23T04:49:00.008Z,21.60
2019-03-23T04:51:29.633Z,19.13
2019-03-23T04:53:59.046Z,21.10
2019-03-23T04:56:28.036Z,20.80
2019-03-23T04:58:57.641Z,21.93
2019-03-23T05:01:27.180Z,20.70
2019-03-23T05:03:56.553Z,20.50
2019-03-23T05:06:25.977Z,20.03
2019-03-23T05:08:55.445Z,20.23
2019-03-23T05:11:24.933Z,21.73
2019-03-23T05:13:54.499Z,20.67
2019-03-23T05:16:24.069Z,18.63
2019-03-23T05:18:53.480Z,20.37
2019-03-23T05:21:22.964Z,19.90
2019-03-23T05:23:52.409Z,20.60
2019-03-23T05:26:21.305Z,22.17
2019-03-23T05:28:50.810Z,21.73
2019-03-23T05:31:20.248Z,22.40
2019-03-23T05:33:50.265Z,19.90
2019-03-23T05:36:19.945Z,20.17
2019-03-23T05:38:49.511Z,21.50
2019-03-23T05:41:18.999Z,21.17
2019-03-23T05:43:48.445Z,21.47
2019-03-23T05:46:17.913Z,20.20
2019-03-23T05:48:47.356Z,20.93
2019-03-23T05:51:17.141Z,20.50
2019-03-23T05:53:46.629Z,20.77
2019-03-23T05:56:16.099Z,21.87
2019-03-23T05:58:45.590Z,21.37
2019-03-23T06:01:15.193Z,21.83
2019-03-23T06:03:44.803Z,22.50
2019-03-23T06:06:14.254Z,21.73
2019-03-23T06:08:54.302Z,20.53
2019-03-23T06:11:14.880Z,19.13
2019-03-23T06:13:44.367Z,20.37
2019-03-23T06:16:13.958Z,20.37
2019-03-23T06:18:43.500Z,21.17
2019-03-23T06:21:12.957Z,19.87
2019-03-23T06:23:42.460Z,19.30
2019-03-23T06:26:11.309Z,18.33
2019-03-23T06:28:40.880Z,19.57
2019-03-23T06:31:10.452Z,18.90
2019-03-23T06:33:40.068Z,19.20
2019-03-23T06:36:09.620Z,19.83
2019-03-23T06:38:39.173Z,19.40
2019-03-23T06:41:08.609Z,20.10
2019-03-23T06:43:38.068Z,20.17
2019-03-23T06:46:07.529Z,18.50
2019-03-23T06:48:36.321Z,18.53
2019-03-23T06:51:06.146Z,18.80
2019-03-23T06:53:35.560Z,19.40
2019-03-23T06:56:05.101Z,19.40
2019-03-23T06:58:34.527Z,18.47
2019-03-23T07:01:04.162Z,17.13
2019-03-23T07:03:33.584Z,17.60
2019-03-23T07:06:03.022Z,18.93
2019-03-23T07:08:32.461Z,18.87
2019-03-23T07:11:02.113Z,17.40
2019-03-23T07:13:31.637Z,19.03
2019-03-23T07:16:01.187Z,18.83
2019-03-23T07:18:30.698Z,19.97
2019-03-23T07:21:00.176Z,17.63
2019-03-23T07:23:29.753Z,20.00
2019-03-23T07:25:59.145Z,19.10
2019-03-23T07:28:28.621Z,19.37
2019-03-23T07:30:58.129Z,19.67
2019-03-23T07:33:27.558Z,19.07
2019-03-23T07:35:56.990Z,19.50
2019-03-23T07:38:26.529Z,18.50
2019-03-23T07:40:56.149Z,19.87
2019-03-23T07:43:25.641Z,19.97
2019-03-23T07:45:55.163Z,19.90
2019-03-23T07:48:24.786Z,20.63
2019-03-23T07:50:54.281Z,20.07
2019-03-23T07:53:23.929Z,19.67
2019-03-23T07:55:53.458Z,20.50
2019-03-23T07:58:22.256Z,21.07
2019-03-23T08:00:51.868Z,18.97
2019-03-23T08:03:21.351Z,20.57
2019-03-23T08:05:50.901Z,20.73
2019-03-23T08:08:20.257Z,20.10
2019-03-23T08:10:49.836Z,20.10
2019-03-23T08:13:19.420Z,20.27
2019-03-23T08:15:48.188Z,20.20
2019-03-23T08:18:17.684Z,20.97
2019-03-23T08:20:47.293Z,20.23
2019-03-23T08:23:16.725Z,20.40
2019-03-23T08:25:46.168Z,19.90
2019-03-23T08:28:15.617Z,19.70
2019-03-23T08:30:45.173Z,20.33
2019-03-23T08:33:13.912Z,23.27
2019-03-23T08:35:43.412Z,19.10
2019-03-23T08:38:13.050Z,20.80
2019-03-23T08:40:41.892Z,20.93
2019-03-23T08:43:11.403Z,21.67
2019-03-23T08:45:40.877Z,21.17
2019-03-23T08:48:10.289Z,19.40
2019-03-23T08:50:39.718Z,20.40
2019-03-23T08:53:10.358Z,20.60
2019-03-23T08:55:39.957Z,19.57
2019-03-23T08:58:09.452Z,19.60
2019-03-23T09:00:38.284Z,19.00
2019-03-23T09:03:07.786Z,21.57
2019-03-23T09:05:37.175Z,20.97
2019-03-23T09:08:06.590Z,19.80
2019-03-23T09:10:35.352Z,20.57
2019-03-23T09:13:04.762Z,18.57
2019-03-23T09:15:34.304Z,19.57
2019-03-23T09:18:03.753Z,19.80
2019-03-23T09:20:33.321Z,18.33
2019-03-23T09:23:02.041Z,20.23
2019-03-23T09:25:31.053Z,21.10
2019-03-23T09:28:00.503Z,18.80
2019-03-23T09:30:30.064Z,21.80
2019-03-23T09:33:00.590Z,21.10
2019-03-23T09:35:30.065Z,20.43
2019-03-23T09:37:59.594Z,21.10
2019-03-23T09:40:29.425Z,20.40
2019-03-23T09:42:58.804Z,20.87
2019-03-23T09:45:28.274Z,20.80
2019-03-23T09:47:58.201Z,22.27
2019-03-23T09:50:27.628Z,20.83
2019-03-23T09:52:57.137Z,20.20
2019-03-23T09:55:28.560Z,19.67
2019-03-23T09:57:58.212Z,21.87
2019-03-23T10:00:27.714Z,20.00
2019-03-23T10:02:57.220Z,22.30
2019-03-23T10:05:26.699Z,19.70
2019-03-23T10:07:56.431Z,21.10
2019-03-23T10:10:25.239Z,22.10
2019-03-23T10:12:56.198Z,20.83
2019-03-23T10:15:25.718Z,21.57
2019-03-23T10:17:55.397Z,21.40
2019-03-23T10:20:24.993Z,22.40
2019-03-23T10:22:54.617Z,21.47
2019-03-23T10:25:24.264Z,23.10
2019-03-23T10:27:53.860Z,21.00
2019-03-23T10:30:24.610Z,22.17
2019-03-23T10:32:54.569Z,21.50
2019-03-23T10:35:24.206Z,22.47
2019-03-23T10:37:53.753Z,22.30
2019-03-23T10:40:31.853Z,22.27
2019-03-23T10:42:53.884Z,22.43
2019-03-23T10:45:23.356Z,24.70
2019-03-23T10:47:52.996Z,24.70
2019-03-23T10:50:22.593Z,23.70
2019-03-23T10:52:52.137Z,25.10
2019-03-23T10:55:21.501Z,24.30
2019-03-23T10:57:50.966Z,25.40
2019-03-23T11:00:20.630Z,24.67
2019-03-23T11:02:50.233Z,23.60
2019-03-23T11:05:22.180Z,25.00
2019-03-23T11:07:50.928Z,24.47
2019-03-23T11:10:20.620Z,22.90
2019-03-23T11:12:50.052Z,25.00
2019-03-23T11:15:19.763Z,22.47
2019-03-23T11:17:49.312Z,22.07
2019-03-23T11:20:18.887Z,21.50
2019-03-23T11:22:48.812Z,22.13
2019-03-23T11:25:18.409Z,23.33
2019-03-23T11:27:47.244Z,23.23
2019-03-23T11:30:16.835Z,23.83
2019-03-23T11:32:46.384Z,23.77
2019-03-23T11:35:16.076Z,23.40
2019-03-23T11:37:46.247Z,23.60
2019-03-23T11:40:16.073Z,24.67
2019-03-23T11:42:50.204Z,23.70
2019-03-23T11:45:17.102Z,23.07
2019-03-23T11:47:46.144Z,22.77
2019-03-23T11:50:15.618Z,23.33
2019-03-23T11:52:47.117Z,23.73
2019-03-23T11:55:16.831Z,23.97
2019-03-23T11:57:46.521Z,24.60
2019-03-23T12:00:16.502Z,24.30
2019-03-23T12:02:46.200Z,22.93
2019-03-23T12:05:15.733Z,24.10
2019-03-23T12:07:45.376Z,24.93
2019-03-23T12:10:14.973Z,24.37
2019-03-23T12:12:44.619Z,24.30
2019-03-23T12:15:14.354Z,24.63
2019-03-23T12:17:44.232Z,24.30
2019-03-23T12:20:13.963Z,25.00
2019-03-23T12:22:42.683Z,23.20
2019-03-23T12:25:12.272Z,25.60
2019-03-23T12:27:41.232Z,24.47
2019-03-23T12:30:12.638Z,23.43
2019-03-23T12:32:42.201Z,23.27
2019-03-23T12:35:12.276Z,23.10
2019-03-23T12:37:41.698Z,24.00
2019-03-23T12:40:11.653Z,23.27
2019-03-23T12:42:41.433Z,23.80
2019-03-23T12:45:11.450Z,25.03
2019-03-23T12:47:40.327Z,23.30
2019-03-23T12:50:10.035Z,22.60
2019-03-23T12:52:39.752Z,22.17
2019-03-23T12:55:09.222Z,23.00
2019-03-23T12:57:38.871Z,22.73
2019-03-23T13:00:08.921Z,23.23
2019-03-23T13:02:38.560Z,23.40
2019-03-23T13:05:08.576Z,22.40
2019-03-23T13:07:38.322Z,22.60
2019-03-23T13:10:08.396Z,20.90
2019-03-23T13:12:37.864Z,21.47
2019-03-23T13:15:06.874Z,20.83
2019-03-23T13:17:36.329Z,21.47
2019-03-23T13:20:08.581Z,20.23
2019-03-23T13:22:37.581Z,23.00
2019-03-23T13:25:07.975Z,20.93
2019-03-23T13:27:36.685Z,20.73
2019-03-23T13:30:07.503Z,21.70
2019-03-23T13:32:36.237Z,22.30
2019-03-23T13:35:06.349Z,21.23
2019-03-23T13:37:35.812Z,21.23
2019-03-23T13:40:06.092Z,21.73
2019-03-23T13:42:35.660Z,20.13
2019-03-23T13:45:05.755Z,21.70
2019-03-23T13:47:35.284Z,20.70
2019-03-23T13:50:04.949Z,20.70
2019-03-23T13:52:33.855Z,21.13
2019-03-23T13:55:03.676Z,19.90
2019-03-23T13:57:32.467Z,20.40
2019-03-23T14:00:02.063Z,19.13
2019-03-23T14:02:31.584Z,22.53
2019-03-23T14:05:01.100Z,21.60
2019-03-23T14:07:30.816Z,18.70
2019-03-23T14:10:00.367Z,20.07
2019-03-23T14:12:29.221Z,20.70
2019-03-23T14:14:58.720Z,20.27
2019-03-23T14:17:28.233Z,20.50
2019-03-23T14:19:57.904Z,20.67
2019-03-23T14:22:27.449Z,19.30
2019-03-23T14:24:56.977Z,19.63
2019-03-23T14:27:26.439Z,19.70
2019-03-23T14:29:55.942Z,22.50
2019-03-23T14:32:25.455Z,21.33
2019-03-23T14:34:54.885Z,21.10
2019-03-23T14:37:23.736Z,19.63
2019-03-23T14:39:53.293Z,21.30
2019-03-23T14:42:23.021Z,21.90
2019-03-23T14:44:52.650Z,20.77
2019-03-23T14:47:22.254Z,21.10
2019-03-23T14:49:51.881Z,20.97
2019-03-23T14:52:21.413Z,22.40
2019-03-23T14:54:51.137Z,20.00
2019-03-23T14:57:20.681Z,20.33
2019-03-23T14:59:50.137Z,22.10
2019-03-23T15:02:19.693Z,23.30
2019-03-23T15:04:49.225Z,24.23
2019-03-23T15:07:18.696Z,22.77
2019-03-23T15:09:48.250Z,22.30
2019-03-23T15:12:17.662Z,23.30
2019-03-23T15:14:47.088Z,21.47
2019-03-23T15:17:16.795Z,21.83
2019-03-23T15:19:46.312Z,22.17
2019-03-23T15:22:15.897Z,20.00
2019-03-23T15:24:45.541Z,21.10
2019-03-23T15:27:14.970Z,22.47
2019-03-23T15:29:44.741Z,22.67
2019-03-23T15:32:13.448Z,22.47
2019-03-23T15:34:42.984Z,21.00
2019-03-23T15:37:12.606Z,21.90
2019-03-23T15:39:42.225Z,21.20
2019-03-23T15:42:11.653Z,20.60
2019-03-23T15:44:41.408Z,21.83
2019-03-23T15:47:10.964Z,22.67
2019-03-23T15:49:40.100Z,22.07
2019-03-23T15:52:09.660Z,22.13
2019-03-23T15:54:39.396Z,22.30
2019-03-23T15:57:09.043Z,22.17
2019-03-23T15:59:38.485Z,23.53
2019-03-23T16:02:08.022Z,21.70
2019-03-23T16:04:37.559Z,23.20
2019-03-23T16:07:07.282Z,21.27
2019-03-23T16:09:36.902Z,22.70
2019-03-23T16:12:06.335Z,21.03
2019-03-23T16:14:35.932Z,21.10
2019-03-23T16:17:05.531Z,21.50
2019-03-23T16:19:34.999Z,22.57
2019-03-23T16:22:03.792Z,23.73
2019-03-23T16:24:33.377Z,22.90
2019-03-23T16:27:02.981Z,21.40
2019-03-23T16:29:32.480Z,22.07
2019-03-23T16:32:02.077Z,21.63
2019-03-23T16:34:31.803Z,20.57
2019-03-23T16:37:00.632Z,22.90
2019-03-23T16:39:29.509Z,22.43
2019-03-23T16:41:59.028Z,23.53
2019-03-23T16:44:28.712Z,22.67
2019-03-23T16:46:57.608Z,23.20
2019-03-23T16:49:27.095Z,21.17
2019-03-23T16:51:56.619Z,22.50
2019-03-23T16:54:26.099Z,24.73
2019-03-23T16:56:55.668Z,22.50
2019-03-23T16:59:25.134Z,22.27
2019-03-23T17:01:54.060Z,23.00
2019-03-23T17:04:23.729Z,22.93
2019-03-23T17:06:53.237Z,23.60
2019-03-23T17:09:22.841Z,23.10
2019-03-23T17:11:52.808Z,22.60
2019-03-23T17:14:22.477Z,22.70
2019-03-23T17:16:51.956Z,22.53
2019-03-23T17:19:21.613Z,21.30
2019-03-23T17:21:51.210Z,21.73
2019-03-23T17:24:20.912Z,23.47
2019-03-23T17:26:50.436Z,22.77
2019-03-23T17:29:20.232Z,23.83
2019-03-23T17:31:48.979Z,25.10
2019-03-23T17:34:18.600Z,23.10
2019-03-23T17:36:48.096Z,23.23
2019-03-23T17:39:17.569Z,23.20
2019-03-23T17:41:47.160Z,23.10
2019-03-23T17:44:17.267Z,23.60
2019-03-23T17:46:46.718Z,23.80
2019-03-23T17:49:16.121Z,22.77
2019-03-23T17:51:45.749Z,22.30
2019-03-23T17:54:15.426Z,24.03
2019-03-23T17:56:44.270Z,23.40
2019-03-23T17:59:13.887Z,22.80
2019-03-23T18:01:43.466Z,22.97
2019-03-23T18:04:12.329Z,23.23
2019-03-23T18:06:41.849Z,23.40
2019-03-23T18:09:11.263Z,23.70
2019-03-23T18:11:40.946Z,23.00
2019-03-23T18:14:10.397Z,23.83
2019-03-23T18:16:39.077Z,23.20
2019-03-23T18:19:08.501Z,23.20
2019-03-23T18:21:38.260Z,23.57
2019-03-23T18:24:07.067Z,24.30
2019-03-23T18:26:36.619Z,23.90
2019-03-23T18:29:06.168Z,24.20
2019-03-23T18:31:35.768Z,22.80
2019-03-23T18:34:05.381Z,23.43
2019-03-23T18:36:34.240Z,23.30
2019-03-23T18:39:05.004Z,24.07
2019-03-23T18:41:33.789Z,22.60
2019-03-23T18:44:03.488Z,24.50
2019-03-23T18:46:32.944Z,24.17
2019-03-23T18:49:02.610Z,22.30
2019-03-23T18:51:32.177Z,23.83
2019-03-23T18:54:00.962Z,22.90
2019-03-23T18:56:30.604Z,25.77
2019-03-23T18:58:59.452Z,26.40
2019-03-23T19:01:28.843Z,27.23
2019-03-23T19:03:58.445Z,27.10
2019-03-23T19:06:28.125Z,29.30
2019-03-23T19:08:57.567Z,28.80
2019-03-23T19:11:27.106Z,29.87
2019-03-23T19:13:56.685Z,29.80
2019-03-23T19:16:25.552Z,31.30
2019-03-23T19:18:54.437Z,29.93
2019-03-23T19:21:23.961Z,27.03
2019-03-23T19:23:53.694Z,24.10
2019-03-23T19:26:23.317Z,25.20
2019-03-23T19:28:52.916Z,24.50
2019-03-23T19:31:22.549Z,25.00
2019-03-23T19:33:52.149Z,23.93
2019-03-23T19:36:21.728Z,24.07
2019-03-23T19:38:51.182Z,22.10
2019-03-23T19:41:20.845Z,22.90
2019-03-23T19:43:51.934Z,24.37
2019-03-23T19:46:21.677Z,24.20
2019-03-23T19:52:21.765Z,25.33
2019-03-23T19:55:09.485Z,24.57
2019-03-23T20:00:50.915Z,23.50
2019-03-23T20:03:38.646Z,23.93
2019-03-23T21:26:21.239Z,29.43
2019-03-23T22:07:55.150Z,33.17
2019-03-23T22:31:29.153Z,32.60
2019-03-23T22:33:58.688Z,35.30
2019-03-23T22:36:28.223Z,35.47
2019-03-23T22:38:57.742Z,36.07
2019-03-23T22:41:27.181Z,33.07
2019-03-23T22:43:56.787Z,36.00
2019-03-23T22:46:26.376Z,35.07
2019-03-23T22:48:55.225Z,35.67
2019-03-23T22:51:24.801Z,34.80
2019-03-23T22:53:55.482Z,36.47
2019-03-23T22:56:25.241Z,35.13
2019-03-23T22:58:54.398Z,35.53
2019-03-23T23:01:23.859Z,37.70
2019-03-23T23:03:53.479Z,37.93
2019-03-23T23:06:22.199Z,44.73
2019-03-23T23:08:51.674Z,38.07
2019-03-23T23:11:21.259Z,36.70
2019-03-23T23:13:50.713Z,36.73
2019-03-23T23:16:20.304Z,37.53
2019-03-23T23:18:49.885Z,35.70
2019-03-23T23:21:18.684Z,35.10
2019-03-23T23:23:48.173Z,37.77
2019-03-23T23:26:17.705Z,37.70
2019-03-23T23:28:47.232Z,37.90
2019-03-23T23:31:16.759Z,37.03
2019-03-23T23:33:45.572Z,40.30
2019-03-23T23:36:14.419Z,36.83
2019-03-23T23:38:43.838Z,35.70
2019-03-23T23:41:13.299Z,38.77
2019-03-23T23:43:43.095Z,38.37
2019-03-23T23:46:14.392Z,39.60
2019-03-23T23:48:51.275Z,41.50
2019-03-23T23:51:15.286Z,38.67
2019-03-23T23:53:44.839Z,38.97
2019-03-23T23:56:14.484Z,39.47
2019-03-23T23:58:44.060Z,39.20
